KBGD/BGD METAR and TAF weather

Enter ICAO airport designator
Station Type Date Time Source
KBGD METAR 2021/09/23 23:51 UTC NOAA

KBGD 232351Z AUTO 17010G20KT 10SM CLR 30/02 A2999 RMK AO2 SLP120 T03000022 10311 20272 55005


Station Type Date Time Source
KBGD Decoded METAR 2021/09/23 23:51 UTC NOAA

BORGER HUTCHINSON CO AIRPORT , TX, United States (KBGD) 35-42N 101-24W 927M
Sep 23, 2021 - 07:51 PM EDT / 2021.09.23 2351 UTC
Wind: from the S (170 degrees) at 12 MPH (10 KT) gusting to 23 MPH (20 KT):0
Visibility: 10 mile(s):0
Sky conditions: clear
Temperature: 86.0 F (30.0 C)
Dew Point: 36.0 F (2.2 C)
Relative Humidity: 16%
Pressure (altimeter): 29.99 in. Hg (1015 hPa)
Pressure tendency: 0.01 inches (0.5 hPa) lower than three hours ago
ob: KBGD 232351Z AUTO 17010G20KT 10SM CLR 30/02 A2999 RMK AO2 SLP120 T03000022 10311 20272 55005
cycle: 0

Station Type Date Time Source
KBGD TAF UTC NOAA

Error!

Example: see airport list